sensor_id;sensor_type;location;lat;lon;timestamp;P1;durP1;ratioP1;P2;durP2;ratioP2
61958;SDS011;47917;48.784;14.980;2022-07-25T00:01:02;7.47;;;5.75;;
61958;SDS011;47917;48.784;14.980;2022-07-25T00:03:28;7.30;;;6.35;;
61958;SDS011;47917;48.784;14.980;2022-07-25T00:05:53;9.40;;;5.75;;
61958;SDS011;47917;48.784;14.980;2022-07-25T00:08:18;7.15;;;5.90;;
61958;SDS011;47917;48.784;14.980;2022-07-25T00:10:44;6.60;;;5.05;;
61958;SDS011;47917;48.784;14.980;2022-07-25T00:13:09;7.60;;;5.93;;
61958;SDS011;47917;48.784;14.980;2022-07-25T00:15:34;6.43;;;4.93;;
61958;SDS011;47917;48.784;14.980;2022-07-25T00:17:59;8.05;;;5.35;;
61958;SDS011;47917;48.784;14.980;2022-07-25T00:20:25;8.27;;;6.15;;
61958;SDS011;47917;48.784;14.980;2022-07-25T00:22:51;8.02;;;5.25;;
61958;SDS011;47917;48.784;14.980;2022-07-25T00:25:16;10.13;;;6.20;;
61958;SDS011;47917;48.784;14.980;2022-07-25T00:27:41;8.45;;;5.53;;
61958;SDS011;47917;48.784;14.980;2022-07-25T00:30:06;13.02;;;6.28;;
61958;SDS011;47917;48.784;14.980;2022-07-25T00:32:32;7.95;;;5.38;;
61958;SDS011;47917;48.784;14.980;2022-07-25T00:34:57;9.00;;;5.47;;
61958;SDS011;47917;48.784;14.980;2022-07-25T00:37:22;7.68;;;5.43;;
61958;SDS011;47917;48.784;14.980;2022-07-25T00:39:48;7.15;;;5.40;;
61958;SDS011;47917;48.784;14.980;2022-07-25T00:42:13;8.20;;;5.50;;
61958;SDS011;47917;48.784;14.980;2022-07-25T00:44:38;9.35;;;5.82;;
61958;SDS011;47917;48.784;14.980;2022-07-25T00:47:04;10.05;;;5.68;;
61958;SDS011;47917;48.784;14.980;2022-07-25T00:49:29;8.45;;;5.47;;
61958;SDS011;47917;48.784;14.980;2022-07-25T00:51:54;6.78;;;5.03;;
61958;SDS011;47917;48.784;14.980;2022-07-25T00:54:20;9.15;;;5.57;;
61958;SDS011;47917;48.784;14.980;2022-07-25T00:56:46;9.98;;;6.05;;
61958;SDS011;47917;48.784;14.980;2022-07-25T00:59:11;10.32;;;5.70;;
61958;SDS011;47917;48.784;14.980;2022-07-25T01:01:37;7.80;;;5.00;;
61958;SDS011;47917;48.784;14.980;2022-07-25T01:04:02;9.18;;;6.47;;
61958;SDS011;47917;48.784;14.980;2022-07-25T01:06:28;7.18;;;5.95;;
61958;SDS011;47917;48.784;14.980;2022-07-25T01:08:53;8.50;;;6.03;;
61958;SDS011;47917;48.784;14.980;2022-07-25T01:11:18;8.63;;;6.00;;
61958;SDS011;47917;48.784;14.980;2022-07-25T01:13:44;9.13;;;5.45;;
61958;SDS011;47917;48.784;14.980;2022-07-25T01:16:09;7.63;;;6.38;;
61958;SDS011;47917;48.784;14.980;2022-07-25T01:18:34;11.45;;;6.90;;
61958;SDS011;47917;48.784;14.980;2022-07-25T01:21:00;8.27;;;5.80;;
61958;SDS011;47917;48.784;14.980;2022-07-25T01:23:26;7.55;;;5.70;;
61958;SDS011;47917;48.784;14.980;2022-07-25T01:25:51;6.30;;;5.63;;
61958;SDS011;47917;48.784;14.980;2022-07-25T01:28:17;10.40;;;5.80;;
61958;SDS011;47917;48.784;14.980;2022-07-25T01:30:42;10.10;;;6.75;;
61958;SDS011;47917;48.784;14.980;2022-07-25T01:33:08;8.07;;;5.90;;
61958;SDS011;47917;48.784;14.980;2022-07-25T01:35:33;8.45;;;6.15;;
61958;SDS011;47917;48.784;14.980;2022-07-25T01:37:58;7.95;;;5.80;;
61958;SDS011;47917;48.784;14.980;2022-07-25T01:40:23;8.27;;;6.00;;
61958;SDS011;47917;48.784;14.980;2022-07-25T01:42:49;6.75;;;6.05;;
61958;SDS011;47917;48.784;14.980;2022-07-25T01:45:14;8.38;;;5.38;;
61958;SDS011;47917;48.784;14.980;2022-07-25T01:47:39;6.65;;;5.10;;
61958;SDS011;47917;48.784;14.980;2022-07-25T01:50:05;8.25;;;5.93;;
61958;SDS011;47917;48.784;14.980;2022-07-25T01:52:31;6.13;;;4.97;;
61958;SDS011;47917;48.784;14.980;2022-07-25T01:54:56;6.78;;;5.50;;
61958;SDS011;47917;48.784;14.980;2022-07-25T01:57:21;7.88;;;5.68;;
61958;SDS011;47917;48.784;14.980;2022-07-25T01:59:46;8.63;;;5.88;;
61958;SDS011;47917;48.784;14.980;2022-07-25T02:02:12;7.15;;;5.38;;
61958;SDS011;47917;48.784;14.980;2022-07-25T02:04:37;6.57;;;5.35;;
61958;SDS011;47917;48.784;14.980;2022-07-25T02:07:02;8.15;;;5.35;;
61958;SDS011;47917;48.784;14.980;2022-07-25T02:09:28;8.75;;;6.15;;
61958;SDS011;47917;48.784;14.980;2022-07-25T02:11:54;7.63;;;5.28;;
61958;SDS011;47917;48.784;14.980;2022-07-25T02:14:19;10.07;;;5.90;;
61958;SDS011;47917;48.784;14.980;2022-07-25T02:16:44;7.00;;;5.72;;
61958;SDS011;47917;48.784;14.980;2022-07-25T02:19:09;7.03;;;5.20;;
61958;SDS011;47917;48.784;14.980;2022-07-25T02:21:35;9.23;;;5.50;;
61958;SDS011;47917;48.784;14.980;2022-07-25T02:24:00;7.40;;;5.55;;
61958;SDS011;47917;48.784;14.980;2022-07-25T02:26:25;11.27;;;5.70;;
61958;SDS011;47917;48.784;14.980;2022-07-25T02:28:51;8.73;;;5.97;;
61958;SDS011;47917;48.784;14.980;2022-07-25T02:31:16;7.93;;;6.13;;
61958;SDS011;47917;48.784;14.980;2022-07-25T02:33:42;7.40;;;5.68;;
61958;SDS011;47917;48.784;14.980;2022-07-25T02:36:07;7.97;;;5.22;;
61958;SDS011;47917;48.784;14.980;2022-07-25T02:38:32;7.90;;;5.30;;
61958;SDS011;47917;48.784;14.980;2022-07-25T02:40:58;8.05;;;5.97;;
61958;SDS011;47917;48.784;14.980;2022-07-25T02:43:23;9.80;;;5.53;;
61958;SDS011;47917;48.784;14.980;2022-07-25T02:45:49;10.52;;;6.07;;
61958;SDS011;47917;48.784;14.980;2022-07-25T02:48:14;12.73;;;3.85;;
61958;SDS011;47917;48.784;14.980;2022-07-25T02:50:39;8.02;;;5.65;;
61958;SDS011;47917;48.784;14.980;2022-07-25T02:53:04;9.90;;;6.45;;
61958;SDS011;47917;48.784;14.980;2022-07-25T02:55:30;8.32;;;5.57;;
61958;SDS011;47917;48.784;14.980;2022-07-25T02:57:55;9.38;;;6.30;;
61958;SDS011;47917;48.784;14.980;2022-07-25T03:00:21;8.60;;;6.55;;
61958;SDS011;47917;48.784;14.980;2022-07-25T03:02:46;10.23;;;6.95;;
61958;SDS011;47917;48.784;14.980;2022-07-25T03:05:12;9.40;;;6.85;;
61958;SDS011;47917;48.784;14.980;2022-07-25T03:07:38;7.55;;;5.70;;
61958;SDS011;47917;48.784;14.980;2022-07-25T03:10:05;9.23;;;6.72;;
61958;SDS011;47917;48.784;14.980;2022-07-25T03:12:30;7.45;;;5.38;;
61958;SDS011;47917;48.784;14.980;2022-07-25T03:14:57;9.93;;;6.32;;
61958;SDS011;47917;48.784;14.980;2022-07-25T03:17:22;8.27;;;5.85;;
61958;SDS011;47917;48.784;14.980;2022-07-25T03:19:47;7.85;;;5.80;;
61958;SDS011;47917;48.784;14.980;2022-07-25T03:22:12;7.72;;;6.13;;
61958;SDS011;47917;48.784;14.980;2022-07-25T03:24:38;10.93;;;6.40;;
61958;SDS011;47917;48.784;14.980;2022-07-25T03:27:03;8.23;;;6.40;;
61958;SDS011;47917;48.784;14.980;2022-07-25T03:29:28;9.07;;;6.03;;
61958;SDS011;47917;48.784;14.980;2022-07-25T03:31:53;6.47;;;4.75;;
61958;SDS011;47917;48.784;14.980;2022-07-25T03:34:19;8.07;;;5.68;;
61958;SDS011;47917;48.784;14.980;2022-07-25T03:36:45;9.82;;;5.65;;
61958;SDS011;47917;48.784;14.980;2022-07-25T03:39:10;10.70;;;5.90;;
61958;SDS011;47917;48.784;14.980;2022-07-25T03:41:35;8.63;;;6.43;;
61958;SDS011;47917;48.784;14.980;2022-07-25T03:44:00;8.40;;;6.85;;
61958;SDS011;47917;48.784;14.980;2022-07-25T03:46:26;9.40;;;6.70;;
61958;SDS011;47917;48.784;14.980;2022-07-25T03:48:52;9.38;;;6.43;;
61958;SDS011;47917;48.784;14.980;2022-07-25T03:51:19;13.18;;;7.05;;
61958;SDS011;47917;48.784;14.980;2022-07-25T03:53:44;8.85;;;6.22;;
61958;SDS011;47917;48.784;14.980;2022-07-25T03:56:29;8.90;;;6.50;;
61958;SDS011;47917;48.784;14.980;2022-07-25T03:58:55;9.20;;;6.20;;
61958;SDS011;47917;48.784;14.980;2022-07-25T04:01:20;9.25;;;6.00;;
61958;SDS011;47917;48.784;14.980;2022-07-25T04:03:45;8.40;;;6.28;;
61958;SDS011;47917;48.784;14.980;2022-07-25T04:06:11;11.40;;;6.47;;
61958;SDS011;47917;48.784;14.980;2022-07-25T04:08:36;8.48;;;6.22;;
61958;SDS011;47917;48.784;14.980;2022-07-25T04:11:01;9.35;;;6.05;;
61958;SDS011;47917;48.784;14.980;2022-07-25T04:13:26;8.45;;;6.45;;
61958;SDS011;47917;48.784;14.980;2022-07-25T04:15:51;6.20;;;4.88;;
61958;SDS011;47917;48.784;14.980;2022-07-25T04:18:17;7.95;;;5.97;;
61958;SDS011;47917;48.784;14.980;2022-07-25T04:20:42;8.93;;;6.18;;
61958;SDS011;47917;48.784;14.980;2022-07-25T04:23:07;9.50;;;6.68;;
61958;SDS011;47917;48.784;14.980;2022-07-25T04:25:32;8.60;;;6.68;;
61958;SDS011;47917;48.784;14.980;2022-07-25T04:27:58;8.73;;;5.30;;
61958;SDS011;47917;48.784;14.980;2022-07-25T04:30:23;8.95;;;5.97;;
61958;SDS011;47917;48.784;14.980;2022-07-25T04:32:48;8.30;;;6.70;;
61958;SDS011;47917;48.784;14.980;2022-07-25T04:35:13;7.07;;;5.40;;
61958;SDS011;47917;48.784;14.980;2022-07-25T04:37:39;7.60;;;5.43;;
61958;SDS011;47917;48.784;14.980;2022-07-25T04:40:04;8.52;;;5.25;;
61958;SDS011;47917;48.784;14.980;2022-07-25T04:42:29;8.98;;;5.15;;
61958;SDS011;47917;48.784;14.980;2022-07-25T04:44:55;8.07;;;5.90;;
61958;SDS011;47917;48.784;14.980;2022-07-25T04:47:20;13.77;;;5.28;;
61958;SDS011;47917;48.784;14.980;2022-07-25T04:49:45;7.97;;;5.28;;
61958;SDS011;47917;48.784;14.980;2022-07-25T04:52:10;5.63;;;4.45;;
61958;SDS011;47917;48.784;14.980;2022-07-25T04:54:36;6.85;;;5.32;;
61958;SDS011;47917;48.784;14.980;2022-07-25T04:57:01;7.78;;;5.45;;
61958;SDS011;47917;48.784;14.980;2022-07-25T04:59:31;7.93;;;5.50;;
61958;SDS011;47917;48.784;14.980;2022-07-25T05:04:54;7.13;;;5.32;;
61958;SDS011;47917;48.784;14.980;2022-07-25T05:07:22;9.85;;;5.68;;
61958;SDS011;47917;48.784;14.980;2022-07-25T05:09:47;7.32;;;5.25;;
61958;SDS011;47917;48.784;14.980;2022-07-25T05:12:12;8.23;;;5.25;;
61958;SDS011;47917;48.784;14.980;2022-07-25T05:14:38;8.82;;;5.03;;
61958;SDS011;47917;48.784;14.980;2022-07-25T05:17:03;9.02;;;4.65;;
61958;SDS011;47917;48.784;14.980;2022-07-25T05:19:29;9.88;;;5.03;;
61958;SDS011;47917;48.784;14.980;2022-07-25T05:21:54;8.75;;;4.43;;
61958;SDS011;47917;48.784;14.980;2022-07-25T05:24:19;8.32;;;5.18;;
61958;SDS011;47917;48.784;14.980;2022-07-25T05:26:46;8.63;;;6.18;;
61958;SDS011;47917;48.784;14.980;2022-07-25T05:29:12;4.95;;;3.78;;
61958;SDS011;47917;48.784;14.980;2022-07-25T05:31:37;6.18;;;4.45;;
61958;SDS011;47917;48.784;14.980;2022-07-25T05:34:02;6.38;;;4.47;;
61958;SDS011;47917;48.784;14.980;2022-07-25T05:36:27;5.35;;;3.90;;
61958;SDS011;47917;48.784;14.980;2022-07-25T05:38:53;6.93;;;4.25;;
61958;SDS011;47917;48.784;14.980;2022-07-25T05:41:18;6.07;;;4.22;;
61958;SDS011;47917;48.784;14.980;2022-07-25T05:43:43;5.47;;;4.25;;
61958;SDS011;47917;48.784;14.980;2022-07-25T05:46:11;6.00;;;3.83;;
61958;SDS011;47917;48.784;14.980;2022-07-25T05:48:36;5.70;;;4.20;;
61958;SDS011;47917;48.784;14.980;2022-07-25T05:51:01;6.40;;;4.07;;
61958;SDS011;47917;48.784;14.980;2022-07-25T05:53:26;5.95;;;4.10;;
61958;SDS011;47917;48.784;14.980;2022-07-25T05:55:52;6.35;;;3.63;;
61958;SDS011;47917;48.784;14.980;2022-07-25T05:58:17;4.47;;;3.40;;
61958;SDS011;47917;48.784;14.980;2022-07-25T06:00:43;7.43;;;4.25;;
61958;SDS011;47917;48.784;14.980;2022-07-25T06:03:08;5.90;;;3.67;;
61958;SDS011;47917;48.784;14.980;2022-07-25T06:05:33;6.97;;;3.75;;
61958;SDS011;47917;48.784;14.980;2022-07-25T06:07:58;5.50;;;3.88;;
61958;SDS011;47917;48.784;14.980;2022-07-25T06:10:24;5.90;;;3.88;;
61958;SDS011;47917;48.784;14.980;2022-07-25T06:12:49;5.70;;;3.63;;
61958;SDS011;47917;48.784;14.980;2022-07-25T06:15:14;5.97;;;3.40;;
61958;SDS011;47917;48.784;14.980;2022-07-25T06:17:40;4.50;;;3.58;;
61958;SDS011;47917;48.784;14.980;2022-07-25T06:20:05;5.68;;;3.78;;
61958;SDS011;47917;48.784;14.980;2022-07-25T06:22:30;4.60;;;3.60;;
61958;SDS011;47917;48.784;14.980;2022-07-25T06:24:56;8.02;;;3.85;;
61958;SDS011;47917;48.784;14.980;2022-07-25T06:27:21;4.85;;;3.75;;
61958;SDS011;47917;48.784;14.980;2022-07-25T06:29:46;9.77;;;4.30;;
61958;SDS011;47917;48.784;14.980;2022-07-25T06:32:12;7.28;;;3.85;;
61958;SDS011;47917;48.784;14.980;2022-07-25T06:34:37;6.25;;;4.38;;
61958;SDS011;47917;48.784;14.980;2022-07-25T06:37:02;5.93;;;4.00;;
61958;SDS011;47917;48.784;14.980;2022-07-25T06:39:28;4.30;;;3.35;;
61958;SDS011;47917;48.784;14.980;2022-07-25T06:41:53;7.40;;;3.88;;
61958;SDS011;47917;48.784;14.980;2022-07-25T06:44:18;6.80;;;3.95;;
61958;SDS011;47917;48.784;14.980;2022-07-25T06:46:44;7.10;;;3.83;;
61958;SDS011;47917;48.784;14.980;2022-07-25T06:49:09;6.63;;;3.47;;
61958;SDS011;47917;48.784;14.980;2022-07-25T06:51:34;5.13;;;3.58;;
61958;SDS011;47917;48.784;14.980;2022-07-25T06:53:59;6.57;;;3.40;;
61958;SDS011;47917;48.784;14.980;2022-07-25T06:56:25;6.65;;;3.72;;
61958;SDS011;47917;48.784;14.980;2022-07-25T06:58:52;5.20;;;3.65;;
61958;SDS011;47917;48.784;14.980;2022-07-25T07:01:17;8.32;;;3.85;;
61958;SDS011;47917;48.784;14.980;2022-07-25T07:03:42;5.38;;;3.30;;
61958;SDS011;47917;48.784;14.980;2022-07-25T07:06:08;7.57;;;3.72;;
61958;SDS011;47917;48.784;14.980;2022-07-25T07:08:33;4.50;;;3.67;;
61958;SDS011;47917;48.784;14.980;2022-07-25T07:10:59;5.47;;;4.03;;
61958;SDS011;47917;48.784;14.980;2022-07-25T07:13:24;4.50;;;3.10;;
61958;SDS011;47917;48.784;14.980;2022-07-25T07:15:49;4.90;;;2.92;;
61958;SDS011;47917;48.784;14.980;2022-07-25T07:18:15;5.65;;;3.35;;
61958;SDS011;47917;48.784;14.980;2022-07-25T07:20:41;4.35;;;3.22;;
61958;SDS011;47917;48.784;14.980;2022-07-25T07:23:07;7.10;;;3.17;;
61958;SDS011;47917;48.784;14.980;2022-07-25T07:25:32;4.65;;;3.10;;
61958;SDS011;47917;48.784;14.980;2022-07-25T07:28:00;8.68;;;3.40;;
61958;SDS011;47917;48.784;14.980;2022-07-25T07:30:26;4.38;;;2.97;;
61958;SDS011;47917;48.784;14.980;2022-07-25T07:32:51;4.75;;;3.08;;
61958;SDS011;47917;48.784;14.980;2022-07-25T07:35:16;8.48;;;3.35;;
61958;SDS011;47917;48.784;14.980;2022-07-25T07:37:43;6.97;;;3.97;;
61958;SDS011;47917;48.784;14.980;2022-07-25T07:40:08;6.47;;;3.75;;
61958;SDS011;47917;48.784;14.980;2022-07-25T07:42:37;11.48;;;3.63;;
61958;SDS011;47917;48.784;14.980;2022-07-25T07:45:08;4.00;;;2.95;;
61958;SDS011;47917;48.784;14.980;2022-07-25T07:47:35;8.30;;;3.10;;
61958;SDS011;47917;48.784;14.980;2022-07-25T07:50:01;7.35;;;3.80;;
61958;SDS011;47917;48.784;14.980;2022-07-25T07:52:26;5.25;;;3.20;;
61958;SDS011;47917;48.784;14.980;2022-07-25T07:54:51;4.53;;;2.88;;
61958;SDS011;47917;48.784;14.980;2022-07-25T07:57:35;3.60;;;2.75;;
61958;SDS011;47917;48.784;14.980;2022-07-25T08:00:00;5.00;;;2.97;;
61958;SDS011;47917;48.784;14.980;2022-07-25T08:02:25;4.00;;;3.13;;
61958;SDS011;47917;48.784;14.980;2022-07-25T08:04:50;5.03;;;3.50;;
61958;SDS011;47917;48.784;14.980;2022-07-25T08:07:16;5.15;;;3.20;;
61958;SDS011;47917;48.784;14.980;2022-07-25T08:09:41;4.78;;;3.35;;
61958;SDS011;47917;48.784;14.980;2022-07-25T08:12:06;4.32;;;3.20;;
61958;SDS011;47917;48.784;14.980;2022-07-25T08:14:32;7.28;;;3.25;;
61958;SDS011;47917;48.784;14.980;2022-07-25T08:16:57;4.60;;;3.20;;
61958;SDS011;47917;48.784;14.980;2022-07-25T08:19:22;5.47;;;3.50;;
61958;SDS011;47917;48.784;14.980;2022-07-25T08:21:48;3.93;;;3.17;;
61958;SDS011;47917;48.784;14.980;2022-07-25T08:24:15;5.90;;;3.10;;
61958;SDS011;47917;48.784;14.980;2022-07-25T08:26:40;4.97;;;3.67;;
61958;SDS011;47917;48.784;14.980;2022-07-25T08:29:05;6.63;;;3.40;;
61958;SDS011;47917;48.784;14.980;2022-07-25T08:31:30;3.67;;;3.00;;
61958;SDS011;47917;48.784;14.980;2022-07-25T08:33:56;4.55;;;3.10;;
61958;SDS011;47917;48.784;14.980;2022-07-25T08:36:21;3.40;;;2.63;;
61958;SDS011;47917;48.784;14.980;2022-07-25T08:38:46;7.97;;;3.33;;
61958;SDS011;47917;48.784;14.980;2022-07-25T08:41:12;4.45;;;3.40;;
61958;SDS011;47917;48.784;14.980;2022-07-25T08:43:37;4.15;;;3.33;;
61958;SDS011;47917;48.784;14.980;2022-07-25T08:46:03;4.60;;;3.08;;
61958;SDS011;47917;48.784;14.980;2022-07-25T08:48:29;4.43;;;3.10;;
61958;SDS011;47917;48.784;14.980;2022-07-25T08:50:55;3.83;;;2.55;;
61958;SDS011;47917;48.784;14.980;2022-07-25T08:53:23;5.90;;;3.53;;
61958;SDS011;47917;48.784;14.980;2022-07-25T08:55:49;6.15;;;3.15;;
61958;SDS011;47917;48.784;14.980;2022-07-25T08:58:15;4.03;;;3.20;;
61958;SDS011;47917;48.784;14.980;2022-07-25T09:00:41;6.03;;;3.30;;
61958;SDS011;47917;48.784;14.980;2022-07-25T09:03:06;5.88;;;4.03;;
61958;SDS011;47917;48.784;14.980;2022-07-25T09:05:32;5.20;;;3.25;;
61958;SDS011;47917;48.784;14.980;2022-07-25T09:10:33;4.57;;;3.30;;
61958;SDS011;47917;48.784;14.980;2022-07-25T09:13:02;4.78;;;3.67;;
61958;SDS011;47917;48.784;14.980;2022-07-25T09:15:28;5.20;;;3.67;;
61958;SDS011;47917;48.784;14.980;2022-07-25T09:17:55;4.07;;;3.58;;
61958;SDS011;47917;48.784;14.980;2022-07-25T09:20:20;5.82;;;3.72;;
61958;SDS011;47917;48.784;14.980;2022-07-25T09:22:46;5.35;;;3.83;;
61958;SDS011;47917;48.784;14.980;2022-07-25T09:25:24;4.68;;;3.58;;
61958;SDS011;47917;48.784;14.980;2022-07-25T09:27:51;8.57;;;3.95;;
61958;SDS011;47917;48.784;14.980;2022-07-25T09:30:16;4.40;;;3.53;;
61958;SDS011;47917;48.784;14.980;2022-07-25T09:32:41;6.47;;;3.42;;
61958;SDS011;47917;48.784;14.980;2022-07-25T09:35:07;6.95;;;4.10;;
61958;SDS011;47917;48.784;14.980;2022-07-25T09:37:32;5.93;;;3.60;;
61958;SDS011;47917;48.784;14.980;2022-07-25T09:39:57;6.18;;;3.38;;
61958;SDS011;47917;48.784;14.980;2022-07-25T09:42:23;4.55;;;3.90;;
61958;SDS011;47917;48.784;14.980;2022-07-25T09:44:58;6.82;;;3.47;;
61958;SDS011;47917;48.784;14.980;2022-07-25T09:47:23;5.35;;;3.70;;
61958;SDS011;47917;48.784;14.980;2022-07-25T09:49:49;6.32;;;3.85;;
61958;SDS011;47917;48.784;14.980;2022-07-25T09:52:14;8.23;;;4.70;;
61958;SDS011;47917;48.784;14.980;2022-07-25T09:54:41;5.95;;;4.00;;
61958;SDS011;47917;48.784;14.980;2022-07-25T09:57:09;7.80;;;4.18;;
61958;SDS011;47917;48.784;14.980;2022-07-25T09:59:35;5.72;;;3.92;;
61958;SDS011;47917;48.784;14.980;2022-07-25T10:02:07;4.70;;;3.75;;
61958;SDS011;47917;48.784;14.980;2022-07-25T10:04:44;6.00;;;3.72;;
61958;SDS011;47917;48.784;14.980;2022-07-25T10:07:10;7.05;;;3.58;;
61958;SDS011;47917;48.784;14.980;2022-07-25T10:09:45;8.02;;;3.97;;
61958;SDS011;47917;48.784;14.980;2022-07-25T10:12:12;5.65;;;4.07;;
61958;SDS011;47917;48.784;14.980;2022-07-25T10:14:37;6.88;;;4.20;;
61958;SDS011;47917;48.784;14.980;2022-07-25T10:17:06;5.18;;;3.53;;
61958;SDS011;47917;48.784;14.980;2022-07-25T10:19:39;5.57;;;3.83;;
61958;SDS011;47917;48.784;14.980;2022-07-25T10:22:05;6.18;;;3.60;;
61958;SDS011;47917;48.784;14.980;2022-07-25T10:24:34;5.45;;;3.90;;
61958;SDS011;47917;48.784;14.980;2022-07-25T10:27:08;5.10;;;3.95;;
61958;SDS011;47917;48.784;14.980;2022-07-25T10:29:34;5.05;;;4.20;;
61958;SDS011;47917;48.784;14.980;2022-07-25T10:32:07;6.33;;;3.80;;
61958;SDS011;47917;48.784;14.980;2022-07-25T10:34:36;9.35;;;4.55;;
61958;SDS011;47917;48.784;14.980;2022-07-25T10:37:14;6.45;;;4.60;;
61958;SDS011;47917;48.784;14.980;2022-07-25T10:39:41;6.60;;;3.83;;
61958;SDS011;47917;48.784;14.980;2022-07-25T10:42:11;5.18;;;4.13;;
61958;SDS011;47917;48.784;14.980;2022-07-25T10:44:54;6.43;;;4.18;;
61958;SDS011;47917;48.784;14.980;2022-07-25T10:47:25;4.80;;;3.45;;
61958;SDS011;47917;48.784;14.980;2022-07-25T10:49:55;4.80;;;3.90;;
61958;SDS011;47917;48.784;14.980;2022-07-25T10:52:27;5.32;;;4.00;;
61958;SDS011;47917;48.784;14.980;2022-07-25T10:54:54;5.03;;;4.05;;
61958;SDS011;47917;48.784;14.980;2022-07-25T10:57:22;5.38;;;4.18;;
61958;SDS011;47917;48.784;14.980;2022-07-25T10:59:47;6.40;;;4.50;;
61958;SDS011;47917;48.784;14.980;2022-07-25T11:02:13;4.67;;;3.90;;
61958;SDS011;47917;48.784;14.980;2022-07-25T11:04:40;6.82;;;4.13;;
61958;SDS011;47917;48.784;14.980;2022-07-25T11:07:06;4.30;;;3.50;;
61958;SDS011;47917;48.784;14.980;2022-07-25T11:09:32;5.60;;;4.45;;
61958;SDS011;47917;48.784;14.980;2022-07-25T11:12:01;6.13;;;4.37;;
61958;SDS011;47917;48.784;14.980;2022-07-25T11:14:31;5.68;;;4.15;;
61958;SDS011;47917;48.784;14.980;2022-07-25T11:16:57;6.80;;;3.70;;
61958;SDS011;47917;48.784;14.980;2022-07-25T11:19:33;5.75;;;4.20;;
61958;SDS011;47917;48.784;14.980;2022-07-25T11:21:59;6.53;;;4.30;;
61958;SDS011;47917;48.784;14.980;2022-07-25T11:26:59;7.18;;;4.63;;
61958;SDS011;47917;48.784;14.980;2022-07-25T11:29:25;5.40;;;4.50;;
61958;SDS011;47917;48.784;14.980;2022-07-25T11:31:54;11.32;;;4.50;;
61958;SDS011;47917;48.784;14.980;2022-07-25T11:34:20;6.65;;;3.97;;
61958;SDS011;47917;48.784;14.980;2022-07-25T11:36:47;6.65;;;3.65;;
61958;SDS011;47917;48.784;14.980;2022-07-25T11:39:12;10.10;;;4.33;;
61958;SDS011;47917;48.784;14.980;2022-07-25T11:41:41;8.07;;;4.20;;
61958;SDS011;47917;48.784;14.980;2022-07-25T11:44:06;5.00;;;4.10;;
61958;SDS011;47917;48.784;14.980;2022-07-25T11:46:39;9.13;;;4.37;;
61958;SDS011;47917;48.784;14.980;2022-07-25T11:49:05;6.00;;;4.05;;
61958;SDS011;47917;48.784;14.980;2022-07-25T11:51:36;7.28;;;4.60;;
61958;SDS011;47917;48.784;14.980;2022-07-25T11:54:09;6.47;;;4.22;;
61958;SDS011;47917;48.784;14.980;2022-07-25T11:56:40;5.97;;;4.30;;
61958;SDS011;47917;48.784;14.980;2022-07-25T11:59:07;6.72;;;5.28;;
61958;SDS011;47917;48.784;14.980;2022-07-25T12:01:35;6.30;;;5.00;;
61958;SDS011;47917;48.784;14.980;2022-07-25T12:04:07;6.70;;;4.82;;
61958;SDS011;47917;48.784;14.980;2022-07-25T12:06:32;7.78;;;4.55;;
61958;SDS011;47917;48.784;14.980;2022-07-25T12:08:57;7.07;;;4.00;;
61958;SDS011;47917;48.784;14.980;2022-07-25T12:11:23;6.57;;;4.90;;
61958;SDS011;47917;48.784;14.980;2022-07-25T12:13:48;6.70;;;4.93;;
61958;SDS011;47917;48.784;14.980;2022-07-25T12:16:14;8.53;;;4.40;;
61958;SDS011;47917;48.784;14.980;2022-07-25T12:18:39;5.10;;;3.80;;
61958;SDS011;47917;48.784;14.980;2022-07-25T12:21:05;5.30;;;4.30;;
61958;SDS011;47917;48.784;14.980;2022-07-25T12:23:30;8.27;;;4.87;;
61958;SDS011;47917;48.784;14.980;2022-07-25T12:25:55;6.03;;;4.57;;
61958;SDS011;47917;48.784;14.980;2022-07-25T12:28:21;6.87;;;5.10;;
61958;SDS011;47917;48.784;14.980;2022-07-25T12:30:52;5.97;;;4.80;;
61958;SDS011;47917;48.784;14.980;2022-07-25T12:33:17;5.63;;;4.65;;
61958;SDS011;47917;48.784;14.980;2022-07-25T12:35:43;5.63;;;5.03;;
61958;SDS011;47917;48.784;14.980;2022-07-25T12:38:08;5.80;;;5.00;;
61958;SDS011;47917;48.784;14.980;2022-07-25T12:40:35;6.95;;;4.90;;
61958;SDS011;47917;48.784;14.980;2022-07-25T12:43:00;6.00;;;5.40;;
61958;SDS011;47917;48.784;14.980;2022-07-25T12:45:25;6.70;;;5.00;;
61958;SDS011;47917;48.784;14.980;2022-07-25T12:47:51;5.93;;;4.40;;
61958;SDS011;47917;48.784;14.980;2022-07-25T12:50:17;9.37;;;5.20;;
61958;SDS011;47917;48.784;14.980;2022-07-25T12:52:44;7.20;;;4.97;;
61958;SDS011;47917;48.784;14.980;2022-07-25T12:55:13;5.22;;;4.30;;
61958;SDS011;47917;48.784;14.980;2022-07-25T12:57:38;5.65;;;4.75;;
61958;SDS011;47917;48.784;14.980;2022-07-25T13:00:04;10.07;;;5.43;;
61958;SDS011;47917;48.784;14.980;2022-07-25T13:02:31;6.97;;;5.63;;
61958;SDS011;47917;48.784;14.980;2022-07-25T13:04:56;9.13;;;5.40;;
61958;SDS011;47917;48.784;14.980;2022-07-25T13:07:21;9.63;;;5.20;;
61958;SDS011;47917;48.784;14.980;2022-07-25T13:09:46;7.87;;;4.87;;
61958;SDS011;47917;48.784;14.980;2022-07-25T13:12:12;6.33;;;5.37;;
61958;SDS011;47917;48.784;14.980;2022-07-25T13:14:37;7.70;;;5.03;;
61958;SDS011;47917;48.784;14.980;2022-07-25T13:17:02;8.07;;;4.97;;
61958;SDS011;47917;48.784;14.980;2022-07-25T13:19:31;5.53;;;4.67;;
61958;SDS011;47917;48.784;14.980;2022-07-25T13:21:56;8.32;;;4.95;;
61958;SDS011;47917;48.784;14.980;2022-07-25T13:24:22;6.47;;;4.90;;
61958;SDS011;47917;48.784;14.980;2022-07-25T13:26:47;7.73;;;5.00;;
61958;SDS011;47917;48.784;14.980;2022-07-25T13:29:12;6.43;;;5.17;;
61958;SDS011;47917;48.784;14.980;2022-07-25T13:31:38;9.77;;;4.80;;
61958;SDS011;47917;48.784;14.980;2022-07-25T13:34:05;6.63;;;4.88;;
61958;SDS011;47917;48.784;14.980;2022-07-25T13:36:31;5.97;;;5.10;;
61958;SDS011;47917;48.784;14.980;2022-07-25T13:38:56;7.93;;;5.30;;
61958;SDS011;47917;48.784;14.980;2022-07-25T13:41:22;6.77;;;5.20;;
61958;SDS011;47917;48.784;14.980;2022-07-25T13:43:47;5.93;;;5.33;;
61958;SDS011;47917;48.784;14.980;2022-07-25T13:46:15;5.73;;;5.10;;
61958;SDS011;47917;48.784;14.980;2022-07-25T13:48:46;8.02;;;5.63;;
61958;SDS011;47917;48.784;14.980;2022-07-25T13:51:12;7.37;;;5.77;;
61958;SDS011;47917;48.784;14.980;2022-07-25T13:53:37;6.30;;;5.13;;
61958;SDS011;47917;48.784;14.980;2022-07-25T13:56:03;6.50;;;5.10;;
61958;SDS011;47917;48.784;14.980;2022-07-25T13:58:28;7.07;;;4.30;;
61958;SDS011;47917;48.784;14.980;2022-07-25T14:00:53;8.30;;;5.80;;
61958;SDS011;47917;48.784;14.980;2022-07-25T14:03:19;6.03;;;5.07;;
61958;SDS011;47917;48.784;14.980;2022-07-25T14:05:44;9.97;;;5.90;;
61958;SDS011;47917;48.784;14.980;2022-07-25T14:08:10;5.87;;;5.13;;
61958;SDS011;47917;48.784;14.980;2022-07-25T14:10:36;6.13;;;5.17;;
61958;SDS011;47917;48.784;14.980;2022-07-25T14:13:03;7.28;;;4.78;;
61958;SDS011;47917;48.784;14.980;2022-07-25T14:15:28;5.53;;;4.30;;
61958;SDS011;47917;48.784;14.980;2022-07-25T14:17:54;7.47;;;5.77;;
61958;SDS011;47917;48.784;14.980;2022-07-25T14:20:19;6.07;;;5.00;;
61958;SDS011;47917;48.784;14.980;2022-07-25T14:22:44;7.33;;;5.30;;
61958;SDS011;47917;48.784;14.980;2022-07-25T14:25:10;7.27;;;4.90;;
61958;SDS011;47917;48.784;14.980;2022-07-25T14:27:36;7.37;;;4.50;;
61958;SDS011;47917;48.784;14.980;2022-07-25T14:30:01;6.70;;;5.10;;
61958;SDS011;47917;48.784;14.980;2022-07-25T14:32:27;7.47;;;5.32;;
61958;SDS011;47917;48.784;14.980;2022-07-25T14:34:58;7.77;;;5.60;;